createdAt,value
2023-01-10T00:00:06.137Z,1.27
2023-01-10T00:10:08.236Z,1.05
2023-01-10T00:20:10.497Z,1.63
2023-01-10T00:30:15.468Z,2.50
2023-01-10T00:40:17.011Z,2.00
2023-01-10T00:50:18.805Z,1.30
2023-01-10T01:00:20.363Z,0.95
2023-01-10T01:10:27.852Z,2.95
2023-01-10T01:20:29.874Z,4.35
2023-01-10T01:30:31.387Z,1.73
2023-01-10T01:40:32.953Z,2.95
2023-01-10T01:50:53.233Z,2.95
2023-01-10T02:00:54.784Z,3.00
2023-01-10T02:11:08.444Z,2.08
2023-01-10T02:21:22.716Z,2.63
2023-01-10T02:31:30.251Z,4.88
2023-01-10T02:41:46.644Z,2.58
2023-01-10T02:51:48.144Z,3.13
2023-01-10T03:02:00.946Z,3.10
2023-01-10T03:12:23.756Z,1.92
2023-01-10T03:22:26.375Z,3.50
2023-01-10T03:32:30.622Z,3.03
2023-01-10T03:43:09.612Z,3.10
2023-01-10T03:53:13.025Z,3.47
2023-01-10T04:03:14.701Z,2.63
2023-01-10T04:13:16.199Z,4.20
2023-01-10T04:23:17.667Z,3.45
2023-01-10T04:33:19.201Z,3.70
2023-01-10T04:43:20.780Z,3.17
2023-01-10T04:53:22.421Z,3.00
2023-01-10T05:03:23.904Z,3.53
2023-01-10T05:13:26.361Z,5.13
2023-01-10T05:23:28.743Z,1.88
2023-01-10T05:33:30.261Z,2.03
2023-01-10T05:43:31.768Z,2.53
2023-01-10T05:53:33.440Z,3.67
2023-01-10T06:03:35.008Z,3.63
2023-01-10T06:13:36.469Z,3.05
2023-01-10T06:23:39.322Z,5.57
2023-01-10T06:33:43.891Z,3.30
2023-01-10T06:43:46.817Z,5.38
2023-01-10T06:53:48.305Z,3.10
2023-01-10T07:03:49.923Z,3.95
2023-01-10T07:13:53.357Z,3.60
2023-01-10T07:23:54.879Z,5.28
2023-01-10T07:33:56.345Z,3.22
2023-01-10T07:43:57.811Z,2.13
2023-01-10T07:53:59.384Z,2.30
2023-01-10T08:04:03.744Z,3.40
2023-01-10T08:14:05.244Z,3.83
2023-01-10T08:24:07.040Z,2.97
2023-01-10T08:34:08.577Z,4.03
2023-01-10T08:44:12.367Z,4.47
2023-01-10T08:54:13.832Z,3.75
2023-01-10T09:04:15.399Z,4.07
2023-01-10T09:14:16.894Z,3.42
2023-01-10T09:24:18.400Z,4.82
2023-01-10T09:34:19.934Z,5.20
2023-01-10T09:44:36.834Z,3.75
2023-01-10T09:54:43.436Z,4.90
2023-01-10T10:04:49.802Z,4.07
2023-01-10T10:15:32.555Z,6.28
2023-01-10T10:25:38.524Z,5.68
2023-01-10T10:35:43.493Z,4.15
2023-01-10T10:45:48.403Z,3.03
2023-01-10T10:55:50.984Z,5.57
2023-01-10T11:05:52.952Z,4.65
2023-01-10T11:15:56.163Z,5.75
2023-01-10T11:25:58.504Z,4.75
2023-01-10T11:36:02.526Z,5.63
2023-01-10T11:46:06.574Z,4.90
2023-01-10T11:56:11.518Z,3.92
2023-01-10T12:06:17.641Z,7.82
2023-01-10T12:16:30.986Z,6.20
2023-01-10T12:26:33.751Z,4.80
2023-01-10T12:36:49.773Z,6.03
2023-01-10T12:47:13.314Z,6.93
2023-01-10T12:57:25.090Z,5.38
2023-01-10T13:07:31.972Z,4.68
2023-01-10T13:17:33.509Z,6.45
2023-01-10T13:27:35.598Z,4.72
2023-01-10T13:37:38.682Z,6.18
2023-01-10T13:47:40.254Z,5.38
2023-01-10T13:58:01.202Z,5.45
2023-01-10T14:08:02.797Z,7.20
2023-01-10T14:18:18.965Z,4.20
2023-01-10T14:28:26.872Z,7.38
2023-01-10T14:38:30.378Z,5.00
2023-01-10T14:48:40.017Z,6.68
2023-01-10T14:58:41.504Z,4.05
2023-01-10T15:08:43.040Z,6.97
2023-01-10T15:18:45.706Z,4.15
2023-01-10T15:29:04.904Z,5.22
2023-01-10T15:39:06.436Z,5.05
2023-01-10T15:49:22.162Z,5.00
2023-01-10T15:59:27.637Z,5.18
2023-01-10T16:09:29.498Z,5.40
2023-01-10T16:19:31.017Z,5.38
2023-01-10T16:29:32.973Z,4.55
2023-01-10T16:39:34.937Z,7.15
2023-01-10T16:49:36.483Z,6.95
2023-01-10T16:59:37.983Z,5.15
2023-01-10T17:09:39.641Z,5.75
2023-01-10T17:19:42.717Z,4.57
2023-01-10T17:29:44.254Z,4.82
2023-01-10T17:39:45.739Z,3.42
2023-01-10T17:49:47.290Z,3.47
2023-01-10T17:59:49.011Z,3.10
2023-01-10T18:09:50.529Z,4.45
2023-01-10T18:19:52.065Z,5.10
2023-01-10T18:29:53.852Z,4.68
2023-01-10T18:39:55.356Z,3.30
2023-01-10T18:49:56.859Z,4.80
2023-01-10T18:59:58.577Z,3.92
2023-01-10T19:10:00.063Z,3.53
2023-01-10T19:20:01.611Z,3.50
2023-01-10T19:30:03.699Z,3.58
2023-01-10T19:40:07.339Z,3.20
2023-01-10T19:50:09.477Z,3.30
2023-01-10T20:00:11.455Z,3.00
2023-01-10T20:10:14.120Z,2.58
2023-01-10T20:20:16.616Z,1.65
2023-01-10T20:30:18.670Z,2.15
2023-01-10T20:40:22.749Z,0.90
2023-01-10T20:50:24.269Z,2.25
2023-01-10T21:00:27.861Z,1.70
2023-01-10T21:10:29.790Z,1.52
2023-01-10T21:20:31.679Z,1.83
2023-01-10T21:30:33.160Z,1.45
2023-01-10T21:40:35.165Z,0.88
2023-01-10T21:50:36.749Z,2.05
2023-01-10T22:00:38.352Z,1.20
2023-01-10T22:10:41.161Z,0.80
2023-01-10T22:20:45.626Z,1.00
2023-01-10T22:30:47.113Z,1.83
2023-01-10T22:40:48.631Z,1.13
2023-01-10T22:50:50.714Z,0.47
2023-01-10T23:00:52.221Z,1.15
2023-01-10T23:10:54.223Z,1.05
2023-01-10T23:20:56.358Z,0.80
2023-01-10T23:30:57.826Z,0.73
2023-01-10T23:40:59.608Z,0.57
2023-01-10T23:51:01.109Z,0.38
